METAR Data
IDs: Format: Raw Decoded Include TAF

Data at: 1734 UTC 03 Jun 2020

KPCD 031715Z AUTO 21005KT 10SM BKN039 30/21 A2992 RMK AO2 T03030206
KPCD 031655Z AUTO 29003KT 10SM SCT037 SCT050 30/21 A2992 RMK AO2 T02980210
KPCD 031635Z AUTO 23003KT 10SM SCT050 30/21 A2993 RMK AO2 T02970211
KPCD 031615Z AUTO 29003KT 10SM SCT050 SCT060 29/21 A2993 RMK AO2 T02920210
KPCD 031555Z AUTO 00000KT 10SM SCT060 28/21 A2994 RMK AO2 T02830205
KPCD 031535Z AUTO 30004KT 10SM SCT048 SCT060 28/20 A2994 RMK AO2 T02770202
KPCD 031515Z AUTO 29004KT 10SM SCT048 SCT060 27/20 A2996 RMK AO2 T02680199
KPCD 031455Z AUTO 26004KT 10SM SCT043 SCT050 27/20 A2996 RMK AO2 T02650195
KPCD 031435Z AUTO 30005KT 10SM SCT038 SCT046 BKN055 26/19 A2996 RMK AO2 T02550191
KPCD 031415Z AUTO 31004KT 10SM SCT044 SCT050 25/19 A2997 RMK AO2 T02540187
KPCD 031355Z AUTO 27003KT 10SM BKN042 BKN050 25/18 A2997 RMK AO2 T02480182
KPCD 031335Z AUTO 31003KT 10SM SCT042 24/18 A2997 RMK AO2 T02430182
KPCD 031315Z AUTO 23004KT 10SM CLR 23/18 A2996 RMK AO2 T02290176
KPCD 031255Z AUTO 21003KT 10SM CLR 22/17 A2996 RMK AO2 T02200170
KPCD 031235Z AUTO 00000KT 10SM CLR 21/17 A2997 RMK AO2 T02120166
KPCD 031215Z AUTO 17003KT 10SM CLR 21/17 A2996 RMK AO2 T02050165
KPCD 031155Z AUTO 00000KT 10SM CLR 20/16 A2996 RMK AO2 T02010164 10213 20180
KPCD 031135Z AUTO 17003KT 10SM CLR 19/16 A2996 RMK AO2 T01890163
KPCD 031115Z AUTO 19004KT 10SM CLR 18/16 A2996 RMK AO2 T01800157
KPCD 031055Z AUTO 00000KT 10SM CLR 19/16 A2997 RMK AO2 T01880157
KPCD 031035Z AUTO 00000KT 10SM CLR 19/16 A2996 RMK AO2 T01890157
KPCD 031015Z AUTO 00000KT 10SM CLR 19/16 A2996 RMK AO2 T01860158
KPCD 030955Z AUTO 00000KT 10SM CLR 18/16 A2996 RMK AO2 T01840157
KPCD 030935Z AUTO 24003KT 10SM CLR 19/16 A2996 RMK AO2 T01920158
KPCD 030915Z AUTO 24004KT 10SM CLR 20/16 A2996 RMK AO2 T01950158
KPCD 030855Z AUTO 00000KT 10SM CLR 19/16 A2996 RMK AO2 T01850160
KPCD 030835Z AUTO 00000KT 10SM CLR 19/16 A2996 RMK AO2 LTG DSNT N T01870160
KPCD 030815Z AUTO 26006KT 10SM CLR 20/16 A2997 RMK AO2 T02000161
KPCD 030755Z AUTO 24003KT 10SM CLR 20/16 A2998 RMK AO2 T01970160
KPCD 030735Z AUTO 26003KT 10SM CLR 20/16 A2999 RMK AO2 T02010160
KPCD 030715Z AUTO 23003KT 10SM CLR 20/16 A2999 RMK AO2 T02000160
KPCD 030655Z AUTO 26004KT 10SM CLR 20/16 A2998 RMK AO2 T02000160
KPCD 030635Z AUTO 00000KT 10SM CLR 19/16 A2998 RMK AO2 T01920159
KPCD 030615Z AUTO 00000KT 10SM CLR 20/16 A2998 RMK AO2 T02020161
KPCD 030555Z AUTO 15003KT 10SM CLR 21/16 A2999 RMK AO2 T02140157 10292 20206 403140181
KPCD 030535Z AUTO 00000KT 10SM CLR 22/16 A2999 RMK AO2 T02200158
KPCD 030515Z AUTO 00000KT 10SM CLR 21/16 A2999 RMK AO2 T02070158
KPCD 030455Z AUTO 00000KT 10SM CLR 21/16 A2999 RMK AO2 T02100160
KPCD 030435Z AUTO 00000KT 10SM CLR 23/16 A2999 RMK AO2 T02260161
KPCD 030415Z AUTO 00000KT 10SM CLR 22/16 A2999 RMK AO2 T02220161
KPCD 030355Z AUTO 26005KT 10SM CLR 24/16 A2998 RMK AO2 T02350161
KPCD 030335Z AUTO 25008KT 10SM CLR 24/16 A2998 RMK AO2 T02370162
KPCD 030315Z AUTO 25007KT 10SM CLR 24/16 A2998 RMK AO2 T02420162
KPCD 030255Z AUTO 21007KT 190V250 10SM CLR 24/16 A2998 RMK AO2 T02400163
KPCD 030235Z AUTO 19006KT 10SM CLR 24/17 A2998 RMK AO2 T02410165
KPCD 030215Z AUTO 19006KT 10SM CLR 24/17 A2997 RMK AO2 T02420169
KPCD 030155Z AUTO 19005KT 10SM CLR 25/17 A2998 RMK AO2 T02490170
KPCD 030135Z AUTO 18006KT 10SM CLR 25/17 A2997 RMK AO2 T02540170
KPCD 030115Z AUTO 17005KT 10SM CLR 26/17 A2997 RMK AO2 T02600171
KPCD 030055Z AUTO 19004KT 10SM CLR 27/17 A2997 RMK AO2 T02680166
KPCD 030035Z AUTO 25005KT 10SM CLR 28/16 A2997 RMK AO2 T02830159
KPCD 030015Z AUTO 25006KT 10SM CLR 29/15 A2997 RMK AO2 T02890154
KPCD 022355Z AUTO 26006KT 10SM CLR 29/16 A2997 RMK AO2 T02920159 10314 20288
KPCD 022335Z AUTO 21008KT 190V250 10SM CLR 29/16 A2998 RMK AO2 T02890160
KPCD 022315Z AUTO 23009KT 190V260 10SM CLR 30/16 A2998 RMK AO2 T03000155
KPCD 022255Z AUTO 23007KT 200V260 10SM CLR 30/15 A2998 RMK AO2 T03030152
KPCD 022235Z AUTO 18012KT 10SM CLR 31/15 A2999 RMK AO2 T03050145
KPCD 022215Z AUTO 22012KT 190V250 10SM CLR 31/14 A2999 RMK AO2 T03070144
KPCD 022155Z AUTO 25010KT 10SM CLR 31/14 A2999 RMK AO2 T03090142
KPCD 022135Z AUTO 25010KT 10SM CLR 31/14 A2999 RMK AO2 T03120141
KPCD 022115Z AUTO 19012G17KT 10SM CLR 31/15 A3000 RMK AO2 T03100149
KPCD 022055Z AUTO 24009G15KT 180V260 10SM CLR 31/16 A3001 RMK AO2 T03100156
KPCD 022035Z AUTO 24006KT 180V260 10SM CLR 31/14 A3001 RMK AO2 T03100143
KPCD 022015Z AUTO 20006KT 10SM CLR 31/15 A3001 RMK AO2 T03080145
KPCD 021955Z AUTO 23008KT 10SM CLR 31/14 A3002 RMK AO2 T03070142
KPCD 021935Z AUTO 18008KT 160V230 10SM CLR 31/13 A3002 RMK AO2 T03090133
KPCD 021915Z AUTO 17009KT 10SM CLR 30/14 A3003 RMK AO2 T03040142
KPCD 021855Z AUTO 21007KT 10SM CLR 30/14 A3004 RMK AO2 T03040141
KPCD 021835Z AUTO 23008KT 180V260 10SM CLR 30/15 A3004 RMK AO2 T03020147
KPCD 021815Z AUTO 24009G14KT 170V260 10SM CLR 30/15 A3004 RMK AO2 T02980145
KPCD 021755Z AUTO 26007KT 210V320 10SM CLR 29/14 A3005 RMK AO2 T02940138 10299 20192
KPCD 021735Z AUTO 24007KT 10SM CLR 30/14 A3006 RMK AO2 T02950143
KPCD 021715Z AUTO 23006KT 10SM CLR 29/14 A3006 RMK AO2 T02910142
KPCD 021655Z AUTO 23008KT 190V260 10SM CLR 29/14 A3006 RMK AO2 T02890137
KPCD 021635Z AUTO 24008KT 10SM CLR 29/14 A3007 RMK AO2 T02860136
KPCD 021615Z AUTO 22008KT 10SM CLR 29/13 A3007 RMK AO2 T02860131
KPCD 021555Z AUTO 22010KT 10SM CLR 28/12 A3007 RMK AO2 T02830124
KPCD 021535Z AUTO 25008KT 10SM CLR 28/12 A3008 RMK AO2 T02770116
KPCD 021515Z AUTO 23007KT 10SM CLR 27/13 A3009 RMK AO2 T02710128
KPCD 021455Z AUTO 22005KT 10SM CLR 26/14 A3009 RMK AO2 T02580140
KPCD 021435Z AUTO 22007KT 10SM CLR 26/13 A3010 RMK AO2 T02600134
KPCD 021415Z AUTO 24006G37KT 7SM CLR 29/14 A3010 RMK AO2 T02870137
KPCD 021355Z AUTO 23005KT 10SM CLR 24/14 A3010 RMK AO2 T02430140
KPCD 021335Z AUTO 21003KT 10SM CLR 23/14 A3011 RMK AO2 T02260140
KPCD 021315Z AUTO 00000KT 10SM CLR 22/13 A3011 RMK AO2 T02150131
KPCD 021255Z AUTO 20003KT 10SM CLR 21/13 A3011 RMK AO2 T02050125
KPCD 021235Z AUTO 00000KT 10SM CLR 21/12 A3011 RMK AO2 T02050115
KPCD 021215Z AUTO 19003KT 10SM CLR 19/12 A3009 RMK AO2 T01940115
KPCD 021155Z AUTO 00000KT 10SM CLR 20/11 A3009 RMK AO2 T01970107 10206 20181
KPCD 021135Z AUTO 00000KT 10SM CLR 19/11 A3009 RMK AO2 T01900107
KPCD 021115Z AUTO 00000KT 10SM CLR 19/11 A3009 RMK AO2 T01920107
KPCD 021055Z AUTO 00000KT 10SM CLR 18/11 A3008 RMK AO2 T01830113
KPCD 021035Z AUTO 00000KT 10SM CLR 19/12 A3008 RMK AO2 T01850119
KPCD 021015Z AUTO 00000KT 10SM CLR 19/12 A3008 RMK AO2 T01860122
KPCD 020955Z AUTO 00000KT 10SM CLR 19/12 A3008 RMK AO2 T01890116
KPCD 020935Z AUTO 00000KT 10SM CLR 19/12 A3008 RMK AO2 T01940118
KPCD 020915Z AUTO 00000KT 10SM CLR 19/14 A3008 RMK AO2 T01850139
KPCD 020855Z AUTO 00000KT 10SM CLR 19/13 A3008 RMK AO2 T01900129
KPCD 020835Z AUTO 00000KT 10SM CLR 20/12 A3007 RMK AO2 T02000115
KPCD 020815Z AUTO 00000KT 10SM CLR 20/12 A3007 RMK AO2 T02020118
KPCD 020755Z AUTO 00000KT 10SM CLR 20/13 A3008 RMK AO2 T01950133
KPCD 020735Z AUTO 00000KT 10SM CLR 20/13 A3008 RMK AO2 T02010128
KPCD 020715Z AUTO 00000KT 10SM CLR 19/14 A3008 RMK AO2 T01870143
KPCD 020655Z AUTO 00000KT 10SM CLR 19/14 A3008 RMK AO2 T01920144
KPCD 020635Z AUTO 00000KT 10SM CLR 20/14 A3009 RMK AO2 T01990138
KPCD 020615Z AUTO 00000KT 10SM CLR 21/13 A3009 RMK AO2 T02050131
KPCD 020555Z AUTO 00000KT 10SM CLR 21/14 A3010 RMK AO2 T02050135 10255 20200 402760131
KPCD 020535Z AUTO 17004KT 10SM CLR 20/13 A3011 RMK AO2 T02000131